Latest Weather Observations for Friendly Beaches

IDT60801

Issued at 4:21 pm EDT Sunday 5 December 2021 (issued every 10 minutes, with the page automatically refreshed every 10 minutes)

About weather observations | Map of weather stations | Latest weather observations for TAS | Other Formats
Station Details ID: 092114 Name: FRIENDLY BEACHES Lat: -42.00 Lon: 148.28 Height: 55.0 m
Data from the previous 72 hours. | See also: Recent months at Friendly Beaches
Date/Time
EDT
Temp
°C
App
Temp
°C
Dew
Point
°C
Rel
Hum
%
Delta-T
°C
Wind Press
QNH
hPa
Press
MSL
hPa
Rain since
9am
mm
Dir  Spd
km/h
Gust
km/h
Spd
kts
Gust
kts
05/04:00pm 17.9 11.2 5.8 45 5.9 NNE 30 43 16 23 1022.6 1022.5 0.0
05/03:44pm 17.9 11.6 5.8 45 5.9 NNE 28 50 15 27 1022.8 1022.7 0.0
05/03:30pm 18.6 12.4 6.1 44 6.2 NNE 28 43 15 23 1022.8 1022.7 0.0
05/03:00pm 18.6 13.1 5.8 43 6.3 NE 24 43 13 23 1023.0 1022.9 0.0
05/02:30pm 19.0 13.8 5.5 41 6.6 NE 22 35 12 19 1023.3 1023.2 0.0
05/02:00pm 18.5 13.7 5.4 42 6.4 NE 20 33 11 18 1023.5 1023.4 0.0
05/01:30pm 18.9 13.7 5.7 42 6.5 NE 22 37 12 20 1023.7 1023.6 0.0
05/01:00pm 18.6 14.0 5.5 42 6.4 NE 19 33 10 18 1023.8 1023.7 0.0
05/12:30pm 18.2 13.6 5.4 43 6.2 NE 19 30 10 16 1024.0 1023.9 0.0
05/12:00pm 17.9 13.5 4.8 42 6.3 NE 17 32 9 17 1024.3 1024.2 0.0
05/11:30am 17.6 13.1 6.2 47 5.6 ENE 19 26 10 14 1024.6 1024.5 0.0
05/11:00am 17.0 13.6 5.9 48 5.4 ENE 13 20 7 11 1024.8 1024.7 0.0
05/10:30am 15.8 12.2 4.8 48 5.2 E 13 19 7 10 1024.6 1024.5 0.0
05/10:00am 16.0 12.7 4.7 47 5.3 ENE 11 15 6 8 1024.7 1024.6 0.0
05/09:30am 14.8 11.4 3.9 48 5.0 E 11 15 6 8 1024.8 1024.7 0.0
05/09:00am 14.7 12.0 3.8 48 5.0 ENE 7 11 4 6 1024.7 1024.6 0.0
05/08:30am 12.6 10.8 3.3 53 4.1 WSW 2 6 1 3 1024.7 1024.6 0.0
05/08:00am 11.2 8.7 3.5 59 3.4 WNW 6 9 3 5 1024.7 1024.6 0.0
05/07:30am 10.0 7.5 3.7 65 2.8 WNW 6 9 3 5 1024.5 1024.4 0.0
05/07:00am 7.9 5.2 3.8 75 1.8 WNW 7 9 4 5 1024.2 1024.1 0.0
05/06:30am 6.3 3.1 3.3 81 1.3 WNW 9 11 5 6 1024.0 1023.9 0.0
05/06:00am 6.1 2.7 2.0 75 1.7 WNW 9 11 5 6 1023.8 1023.7 0.0
05/05:30am 5.5 2.2 2.5 81 1.2 WNW 9 11 5 6 1023.4 1023.3 0.0
05/05:00am 5.7 1.9 1.6 75 1.6 WNW 11 11 6 6 1023.1 1023.0 0.0
05/04:30am 6.4 2.9 1.5 71 2.0 WNW 9 11 5 6 1022.8 1022.7 0.0
05/04:00am 6.6 3.2 1.7 71 2.0 WNW 9 11 5 6 1022.7 1022.6 0.0
05/03:30am 6.8 3.4 1.7 70 2.1 WNW 9 13 5 7 1022.6 1022.5 0.0
05/03:00am 6.9 3.5 1.8 70 2.1 WNW 9 11 5 6 1022.6 1022.5 0.0
05/02:30am 7.0 3.6 1.9 70 2.1 WNW 9 11 5 6 1022.7 1022.6 0.0
05/02:00am 7.3 4.0 2.4 71 2.0 WNW 9 11 5 6 1022.7 1022.6 0.0
05/01:30am 7.4 4.5 2.5 71 2.0 W 7 11 4 6 1022.6 1022.5 0.0
05/01:00am 7.6 4.7 2.5 70 2.1 WNW 7 7 4 4 1022.5 1022.4 0.0
05/12:30am 8.3 5.2 1.5 62 2.8 SW 7 9 4 5 1022.3 1022.2 0.0
05/12:00am 8.1 5.3 1.9 65 2.5 SSW 6 9 3 5 1022.2 1022.1 0.0
 
Date/Time
EDT
Temp
°C
App
Temp
°C
Dew
Point
°C
Rel
Hum
%
Delta-T
°C
Wind Press
QNH
hPa
Press
MSL
hPa
Rain since
9am
mm
Dir  Spd
km/h
Gust
km/h
Spd
kts
Gust
kts
04/11:30pm 7.6 5.2 1.9 67 2.3 SW 4 6 2 3 1022.2 1022.1 0.0
04/11:00pm 7.8 5.7 1.6 65 2.5 W 2 6 1 3 1021.8 1021.7 0.0
04/10:30pm 8.5 5.0 1.4 61 2.9 SSW 9 13 5 7 1021.5 1021.4 0.0
04/10:00pm 9.0 5.9 1.4 59 3.1 SSW 7 11 4 6 1021.5 1021.4 0.0
04/09:30pm 9.4 5.9 1.3 57 3.3 SSW 9 13 5 7 1020.9 1020.8 0.0
04/09:00pm 10.0 5.8 1.4 55 3.6 S 13 19 7 10 1020.5 1020.4 0.0
04/08:30pm 10.7 5.7 1.3 52 3.9 S 17 26 9 14 1020.0 1019.9 0.0
04/08:00pm 11.4 6.3 0.8 48 4.4 S 17 28 9 15 1019.4 1019.4 0.0
04/07:30pm 12.5 7.4 0.6 44 5.0 S 17 28 9 15 1018.8 1018.8 0.0
04/07:00pm 13.3 7.5 0.0 40 5.5 S 20 33 11 18 1018.2 1018.2 0.0
04/06:30pm 13.7 7.9 -0.3 38 5.8 S 20 33 11 18 1017.6 1017.6 0.0
04/06:00pm 12.7 4.9 -0.5 40 5.4 S 30 43 16 23 1017.1 1017.0 0.0
04/05:30pm 14.3 6.8 0.9 40 5.7 S 30 44 16 24 1016.6 1016.5 0.0
04/05:00pm 14.3 6.8 1.2 41 5.6 S 30 43 16 23 1016.3 1016.2 0.0
04/04:42pm 14.8 7.3 1.0 39 6.0 S 30 50 16 27 1016.0 1015.9 0.0
04/04:30pm 15.0 7.7 2.2 42 5.7 S 30 46 16 25 1015.9 1015.8 0.0
04/04:06pm 15.2 8.1 1.4 39 6.0 S 28 48 15 26 1015.5 1015.4 0.0
04/04:00pm 15.5 9.7 2.3 41 5.9 S 22 37 12 20 1015.6 1015.5 0.0
04/03:37pm 14.6 6.6 1.5 41 5.7 SSW 33 54 18 29 1015.4 1015.3 0.0
04/03:30pm 14.8 7.7 1.3 40 5.9 S 28 48 15 26 1015.3 1015.2 0.0
04/03:00pm 15.3 9.1 4.4 48 5.1 S 26 41 14 22 1015.0 1014.9 0.0
04/02:30pm 14.0 7.0 2.0 44 5.3 S 28 46 15 25 1014.8 1014.7 0.0
04/02:24pm 14.5 7.3 0.7 39 5.9 S 28 46 15 25 1014.8 1014.7 0.0
04/02:00pm 15.3 8.9 1.1 38 6.2 S 24 43 13 23 1014.5 1014.4 0.0
04/01:30pm 14.4 7.9 0.3 38 6.0 S 24 39 13 21 1014.4 1014.3 0.0
04/01:00pm 13.5 7.7 2.4 47 4.9 SSW 22 41 12 22 1014.1 1014.0 0.0
04/12:31pm 15.8 8.8 3.9 45 5.5 S 30 48 16 26 1013.5 1013.4 0.0
04/12:30pm 16.0 8.6 4.1 45 5.5 S 32 48 17 26 1013.5 1013.4 0.0
04/12:09pm 15.4 8.0 3.9 46 5.3 S 32 54 17 29 1013.4 1013.3 0.0
04/12:00pm 15.1 7.5 3.9 47 5.2 S 33 50 18 27 1013.2 1013.1 0.0
04/11:44am 17.1 9.9 0.7 33 7.2 SW 28 46 15 25 1012.5 1012.4 0.0
04/11:30am 16.2 11.0 3.6 43 5.8 SW 20 37 11 20 1012.3 1012.2 0.0
04/11:00am 13.7 8.8 4.0 52 4.4 WSW 19 33 10 18 1012.4 1012.3 0.0
04/10:30am 12.2 6.8 6.3 67 2.8 S 24 43 13 23 1012.3 1012.2 0.0
04/10:00am 14.0 9.1 5.1 55 4.2 SW 20 35 11 19 1011.8 1011.7 0.0
04/09:30am 13.3 9.6 6.4 63 3.3 WSW 15 28 8 15 1011.8 1011.7 0.0
04/09:00am 13.6 9.2 6.5 62 3.4 WSW 19 35 10 19 1011.3 1011.2 0.0
04/08:30am 13.9 10.9 6.0 59 3.8 SW 11 20 6 11 1010.7 1010.6 0.0
04/08:00am 15.4 11.2 5.6 52 4.7 WNW 17 28 9 15 1009.8 1009.7 0.0
04/07:30am 13.7 9.8 5.3 57 3.9 NW 15 26 8 14 1009.2 1009.1 0.0
04/07:00am 12.3 9.4 4.5 59 3.6 NW 9 20 5 11 1009.3 1009.2 0.0
04/06:30am 11.3 7.5 4.1 61 3.2 NNW 13 20 7 11 1009.1 1009.0 0.0
04/06:00am 11.2 6.9 3.3 58 3.5 NNW 15 24 8 13 1009.1 1009.0 0.0
04/05:30am 10.9 6.9 2.7 57 3.5 NNW 13 28 7 15 1008.9 1008.8 0.0
04/05:00am 11.2 6.8 2.5 55 3.8 NW 15 28 8 15 1009.1 1009.0 0.0
04/04:30am 11.3 5.9 2.6 55 3.8 WNW 20 32 11 17 1008.9 1008.8 0.0
04/04:00am 10.9 5.5 2.5 56 3.6 WNW 20 35 11 19 1009.1 1009.0 0.0
04/03:30am 10.6 5.8 2.4 57 3.5 WNW 17 28 9 15 1009.2 1009.1 0.0
04/03:00am 9.9 5.5 2.7 61 3.1 WNW 15 24 8 13 1009.6 1009.5 0.0
04/02:30am 9.3 6.9 4.3 71 2.2 NW 6 7 3 4 1010.1 1010.0 0.0
04/02:00am 9.7 6.8 4.5 70 2.3 WNW 9 13 5 7 1010.3 1010.2 0.0
04/01:30am 9.8 7.3 4.8 71 2.2 W 7 11 4 6 1010.5 1010.4 0.0
04/01:00am 10.0 7.6 5.2 72 2.2 W 7 13 4 7 1010.9 1010.8 0.0
04/12:30am 10.8 8.5 7.3 79 1.7 WSW 9 13 5 7 1011.2 1011.1 0.0
04/12:00am 11.0 9.1 9.1 88 0.9 W 9 11 5 6 1011.3 1011.2 0.0
 
Date/Time
EDT
Temp
°C
App
Temp
°C
Dew
Point
°C
Rel
Hum
%
Delta-T
°C
Wind Press
QNH
hPa
Press
MSL
hPa
Rain since
9am
mm
Dir  Spd
km/h
Gust
km/h
Spd
kts
Gust
kts
03/11:30pm 10.9 8.8 8.3 84 1.3 WNW 9 13 5 7 1011.5 1011.4 0.0
03/11:00pm 11.4 9.1 7.3 76 2.0 WNW 9 11 5 6 1011.6 1011.5 0.0
03/10:30pm 13.2 10.5 7.4 68 2.8 NNW 11 17 6 9 1011.6 1011.5 0.0
03/10:00pm 13.8 10.0 7.6 66 3.1 N 17 24 9 13 1011.6 1011.5 0.0
03/09:30pm 14.0 9.8 7.5 65 3.2 N 19 28 10 15 1011.7 1011.6 0.0
03/09:00pm 14.3 10.2 8.7 69 2.8 N 20 33 11 18 1011.9 1011.8 0.0
03/08:30pm 13.8 11.0 10.0 78 2.0 N 15 22 8 12 1012.5 1012.4 0.0
03/08:00pm 14.1 10.6 10.1 77 2.1 NNE 19 32 10 17 1012.8 1012.7 0.0
03/07:30pm 14.6 11.3 9.4 71 2.7 NNE 17 32 9 17 1013.3 1013.2 0.0
03/07:00pm 15.2 11.5 9.3 68 3.0 NNE 19 35 10 19 1013.7 1013.6 0.0
03/06:30pm 15.6 11.9 9.5 67 3.2 NNE 19 32 10 17 1013.8 1013.7 0.0
03/06:00pm 15.0 11.5 8.9 67 3.1 NNE 17 26 9 14 1014.1 1014.0 0.0
03/05:30pm 14.2 11.0 8.6 69 2.8 NE 15 24 8 13 1014.5 1014.4 0.0
03/05:00pm 14.0 10.8 8.4 69 2.8 NE 15 24 8 13 1014.9 1014.8 0.0
03/04:30pm 14.2 10.9 8.2 67 3.0 NE 15 22 8 12 1015.3 1015.2 0.0
03/04:00pm 14.5 11.7 8.5 67 3.0 ENE 13 20 7 11 1015.5 1015.4 0.0
03/03:30pm 14.7 11.9 8.6 67 3.1 ENE 13 20 7 11 1015.9 1015.8 0.0
03/03:00pm 15.1 11.9 8.6 65 3.3 E 15 22 8 12 1016.1 1016.0 0.0
03/02:30pm 16.0 12.8 8.5 61 3.8 E 15 20 8 11 1016.3 1016.2 0.0
03/02:00pm 18.4 15.3 8.7 53 5.0 E 15 22 8 12 1016.3 1016.2 0.0
03/01:30pm 19.0 15.5 8.9 52 5.3 E 17 24 9 13 1016.4 1016.3 0.0
03/01:00pm 19.3 16.7 10.6 57 4.7 ESE 15 20 8 11 1016.4 1016.3 0.0
03/12:30pm 17.9 14.5 9.3 57 4.5 ESE 17 20 9 11 1016.6 1016.5 0.0
03/12:00pm 18.8 15.7 10.4 58 4.5 ESE 17 22 9 12 1016.5 1016.4 0.0
03/11:30am 18.9 15.8 10.2 57 4.7 ESE 17 20 9 11 1016.7 1016.6 0.0
03/11:00am 18.5 14.8 9.6 56 4.7 SE 19 22 10 12 1016.7 1016.6 0.0
03/10:30am 18.9 15.5 10.5 58 4.5 SE 19 26 10 14 1016.8 1016.7 0.0
03/10:00am 16.9 13.5 9.1 60 4.0 SE 17 24 9 13 1016.8 1016.7 0.0
03/09:30am 16.4 13.4 7.6 56 4.4 SSE 13 19 7 10 1016.7 1016.6 0.0
03/09:00am 17.3 14.8 8.2 55 4.6 SSE 11 19 6 10 1016.4 1016.3 4.8
03/08:30am 16.3 13.6 7.5 56 4.4 SSW 11 20 6 11 1016.1 1016.0 4.8
03/08:00am 15.6 12.8 7.1 57 4.2 SW 11 20 6 11 1015.8 1015.7 4.8
03/07:30am 14.9 12.2 7.5 61 3.7 SSW 11 20 6 11 1015.5 1015.4 4.8
03/07:00am 14.0 12.2 8.0 67 3.0 SW 7 15 4 8 1015.0 1014.9 4.8
03/06:30am 11.9 10.0 7.6 75 2.1 SW 7 11 4 6 1014.6 1014.5 4.8
03/06:00am 11.0 9.2 7.1 77 1.9 SSW 6 9 3 5 1013.9 1013.8 4.8
03/05:30am 11.5 8.3 7.0 74 2.2 S 13 19 7 10 1013.3 1013.2 4.8
03/05:00am 12.4 10.4 8.5 77 1.9 S 9 17 5 9 1013.1 1013.0 4.8
03/04:30am 13.0 11.6 9.6 80 1.7 S 7 13 4 7 1012.6 1012.5 4.8
03/04:00am 13.5 12.6 10.5 82 1.6 SSE 6 15 3 8 1012.5 1012.4 4.8
03/03:30am 13.7 12.8 11.2 85 1.3 S 7 17 4 9 1012.0 1011.9 4.8
03/03:00am 14.0 13.2 11.7 86 1.2 SSW 7 20 4 11 1011.7 1011.6 4.8
03/02:30am 14.2 13.3 12.6 90 0.9 S 9 19 5 10 1011.4 1011.3 4.8
03/02:00am 14.1 13.8 12.7 91 0.8 SSW 6 9 3 5 1011.2 1011.1 4.8
03/01:30am 14.8 14.7 13.2 90 0.9 SW 6 7 3 4 1011.2 1011.1 4.8
03/01:00am 15.3 15.3 13.7 90 0.9 W 6 9 3 5 1011.5 1011.4 4.8
03/12:30am 15.1 15.9 13.6 91 0.8 WSW 2 9 1 5 1011.6 1011.5 4.8
03/12:00am 14.7 14.3 13.1 90 0.9 S 7 13 4 7 1012.1 1012.0 4.8
 
Date/Time
EDT
Temp
°C
App
Temp
°C
Dew
Point
°C
Rel
Hum
%
Delta-T
°C
Wind Press
QNH
hPa
Press
MSL
hPa
Rain since
9am
mm
Dir  Spd
km/h
Gust
km/h
Spd
kts
Gust
kts
02/11:30pm 15.8 15.7 13.8 88 1.1 SSE 7 13 4 7 1011.8 1011.7 4.8
02/11:00pm 16.1 16.3 14.1 88 1.1 NNE 6 13 3 7 1011.5 1011.4 4.6
02/10:30pm 16.4 16.6 14.2 87 1.3 W 6 11 3 6 1011.6 1011.5 4.6
02/10:01pm 17.0 13.2 14.6 86 1.4 NW 28 50 15 27 1011.0 1010.9 3.0
02/10:00pm 17.1 13.3 14.6 85 1.4 NW 28 44 15 24 1011.0 1010.9 3.0
02/09:30pm 20.4 17.2 11.9 58 4.7 N 20 32 11 17 1009.1 1009.0 0.0
02/09:00pm 21.4 18.8 10.6 50 5.9 N 15 26 8 14 1008.4 1008.3 0.0
02/08:30pm 21.4 18.2 11.1 52 5.7 N 19 28 10 15 1008.3 1008.2 0.0
02/08:00pm 22.3 19.8 11.1 49 6.2 N 15 24 8 13 1007.9 1007.8 0.0
02/07:30pm 18.7 16.1 13.1 70 3.2 NNE 19 26 10 14 1008.3 1008.2 0.0
02/07:00pm 21.6 18.4 13.0 58 4.9 N 22 35 12 19 1008.5 1008.4 0.0
02/06:30pm 21.9 19.0 13.0 57 5.1 N 20 37 11 20 1008.2 1008.1 0.0
02/06:00pm 21.5 18.2 13.9 62 4.4 NNE 24 37 13 20 1008.0 1007.9 0.0
02/05:30pm 21.7 18.0 13.9 61 4.5 NNE 26 37 14 20 1008.5 1008.4 0.0
02/05:00pm 20.8 16.5 13.3 62 4.3 N 28 46 15 25 1008.6 1008.5 0.0
02/04:53pm 20.8 16.5 13.3 62 4.3 N 28 46 15 25 1008.6 1008.5 0.0
02/04:30pm 21.8 18.1 13.9 60 4.6 NNE 26 39 14 21 1008.6 1008.5 0.0

Other formats

Comma delimited format used in spreadsheet applications
http://www.bom.gov.au/fwo/IDT60801/IDT60801.94987.axf

JavaScript Object Notation format (JSON) in row-major order
http://www.bom.gov.au/fwo/IDT60801/IDT60801.94987.json

Data quality

Most of these data are generated automatically and are frequently updated. Quality checks on data are not normally performed. It is possible for incorrect values to appear. Refer to information at About Latest Weather Observations and please check the disclaimer before using these data.